Terminal Aerodrome Forecast
Issued by NWS

Home | Current Version | Previous Version | Text Only | Print | Product List | Glossary On
Versions: 1 2 3 4 5 6 7 8 9 10 11 12 13 14 15 16 17 18 19 20 21 22 23 24 25 26 27 28 29 30 31 32
000
FTUS41 KOKX 181943 AAA
TAFSWF
TAF AMD
KSWF 181943Z 1820/1924 26007KT P6SM SKC
     FM182200 23005KT P6SM SKC
     FM190000 VRB03KT P6SM FEW240
      TEMPO 1908/1912 6SM BR
     FM191500 24006KT P6SM FEW240
     FM191800 24011G19KT P6SM FEW250
      AMD NOT SKED=

USA.gov is the U.S. government's official web portal to all federal, state and local government web resources and services.